Home   Weather   Livedea   Past weeks
Flag for Romania

Past Weather in Livedea, Romania — Yesterday and Last 2 Weeks

Currently: 61 °F. Passing clouds. (Weather station: Bucharest / Imh, Romania). See more current weather

Past Weather in Livedea — Graph

°F

Livedea Temperature Yesterday

Maximum temperature yesterday: 73 °F (at 3:00 pm)
Minimum temperature yesterday: 46 °F (at 4:30 am)
Average temperature yesterday: 58 °F

High & Low Weather Summary for the Past Weeks

 TemperatureHumidityPressure
High73 °F (Oct 22, 3:00 pm)100% (Oct 13, 3:30 am)30.39 "Hg (Oct 13, 3:30 am)
Low39 °F (Oct 20, 6:30 am)29% (Oct 10, 4:00 pm)29.83 "Hg (Oct 12, 4:00 pm)
Average51 °F77%30.16 "Hg
* Reported Oct 7 11:00 pm — Oct 22 11:30 pm, Livedea. Weather by CustomWeather, © 2021

Note: Actual official high and low records may vary slightly from our data, if they occured in-between our weather recording intervals... More about our weather records

Livedea Weather History for the Previous 24 Hours

Scroll right to see more
 ConditionsComfort  
Time TempWeatherWind HumidityBarometerVisibility
11:30 pm
Fri, Oct 22
61 °FPassing clouds.6 mph68%30.04 "HgN/A
11:00 pm61 °FClear.6 mph68%30.04 "Hg10 mi
10:30 pm61 °FClear.6 mph72%30.04 "Hg10 mi
10:00 pm61 °FClear.6 mph72%30.01 "Hg10 mi
9:30 pm61 °FClear.6 mph72%30.01 "Hg10 mi
9:00 pm61 °FClear.7 mph72%30.04 "Hg10 mi
8:30 pm63 °FClear.5 mph68%30.04 "Hg10 mi
8:00 pm63 °FClear.8 mph68%30.04 "Hg10 mi
7:30 pm64 °FClear.8 mph64%30.01 "Hg10 mi
7:00 pm64 °FClear.10 mph64%30.01 "Hg10 mi
6:30 pm66 °FClear.7 mph64%30.01 "Hg10 mi
6:00 pm66 °FSunny.9 mph64%30.01 "Hg10 mi
5:30 pm68 °FSunny.13 mph56%30.01 "Hg10 mi
5:00 pm70 °FSunny.10 mph53%30.01 "Hg10 mi
4:30 pm70 °FSunny.14 mph50%30.01 "Hg10 mi
4:00 pm72 °FPassing clouds.13 mph47%30.01 "HgN/A
3:30 pm72 °FSunny.14 mph47%30.01 "Hg10 mi
3:00 pm73 °FPassing clouds.12 mph44%30.01 "HgN/A
2:30 pm72 °FSunny.12 mph50%30.01 "Hg10 mi
2:00 pm72 °FSunny.13 mph47%30.01 "Hg10 mi
1:30 pm70 °FSunny.13 mph53%30.04 "Hg10 mi
1:00 pm68 °FPassing clouds.10 mph53%30.04 "HgN/A
12:30 pm64 °FSunny.10 mph60%30.04 "Hg10 mi
12:00 pm64 °FPassing clouds.9 mph60%30.04 "HgN/A
11:30 am63 °FPassing clouds.9 mph64%30.04 "HgN/A
11:00 am61 °FSunny.8 mph68%30.04 "Hg10 mi
10:30 am57 °FSunny.8 mph72%30.04 "Hg10 mi
10:00 am54 °FClear.8 mph82%30.04 "Hg6 mi
9:30 am52 °FClear.7 mph82%30.04 "Hg5 mi
9:00 am50 °FClear.7 mph88%30.01 "Hg4 mi
8:30 am50 °FFog.8 mph88%30.01 "Hg4 mi
8:00 am48 °FFog.7 mph87%30.01 "Hg4 mi
7:30 am48 °FFog.7 mph87%29.98 "Hg4 mi
7:00 am48 °FClear.6 mph87%29.98 "Hg5 mi
6:30 am48 °FClear.6 mph87%30.01 "Hg5 mi
6:00 am48 °FClear.7 mph87%29.98 "Hg5 mi
5:30 am48 °FClear.7 mph87%29.98 "Hg4 mi
5:00 am46 °FClear.8 mph93%29.98 "Hg4 mi
4:30 am46 °FClear.5 mph93%29.98 "Hg4 mi
4:00 am48 °FClear.6 mph87%29.98 "Hg4 mi
3:30 am48 °FClear.5 mph87%29.98 "Hg4 mi
3:00 am50 °FClear.5 mph88%29.98 "Hg4 mi
2:30 am50 °FClear.5 mph88%29.98 "Hg4 mi
2:00 am50 °FClear.5 mph88%29.98 "Hg5 mi
1:30 am50 °FClear.5 mph88%29.98 "Hg5 mi
1:00 am50 °FPassing clouds.3 mph88%29.98 "HgN/A
12:30 am52 °FPassing clouds.5 mph82%29.98 "HgN/A
12:00 am52 °FPassing clouds.3 mph88%29.98 "HgN/A
Weather by CustomWeather, © 2021

See weather overview